createdAt,value
2018-07-09T00:01:20.101Z,100030.00
2018-07-09T00:03:49.552Z,100033.00
2018-07-09T00:06:18.959Z,100029.00
2018-07-09T00:08:48.303Z,100037.00
2018-07-09T00:11:17.666Z,100032.00
2018-07-09T00:13:47.105Z,100023.00
2018-07-09T00:16:16.547Z,100034.00
2018-07-09T00:18:45.922Z,100036.00
2018-07-09T00:21:15.367Z,100034.00
2018-07-09T00:23:44.803Z,100036.00
2018-07-09T00:26:14.220Z,100029.00
2018-07-09T00:28:43.588Z,100031.00
2018-07-09T00:31:12.959Z,100030.00
2018-07-09T00:33:42.440Z,100035.00
2018-07-09T00:36:11.770Z,100030.00
2018-07-09T00:38:41.249Z,100036.00
2018-07-09T00:41:10.601Z,100032.00
2018-07-09T00:43:39.989Z,100035.00
2018-07-09T00:46:09.404Z,100038.00
2018-07-09T00:48:38.801Z,100030.00
2018-07-09T00:51:08.157Z,100039.00
2018-07-09T00:53:37.596Z,100041.00
2018-07-09T00:56:06.985Z,100037.00
2018-07-09T00:58:36.418Z,100034.00
2018-07-09T01:01:05.773Z,100035.00
2018-07-09T01:03:35.195Z,100035.00
2018-07-09T01:06:04.606Z,100037.00
2018-07-09T01:08:34.011Z,100029.00
2018-07-09T01:11:20.397Z,100034.00
2018-07-09T01:13:49.738Z,100031.00
2018-07-09T01:16:19.110Z,100035.00
2018-07-09T01:18:48.442Z,100027.00
2018-07-09T01:21:17.925Z,100024.00
2018-07-09T01:23:47.290Z,100023.00
2018-07-09T01:26:16.730Z,100033.00
2018-07-09T01:28:46.205Z,100033.00
2018-07-09T01:31:15.598Z,100023.00
2018-07-09T01:33:44.969Z,100018.00
2018-07-09T01:36:14.341Z,100018.00
2018-07-09T01:38:43.773Z,100022.00
2018-07-09T01:41:13.108Z,100023.00
2018-07-09T01:43:42.465Z,100018.00
2018-07-09T01:46:11.896Z,100021.00
2018-07-09T01:48:41.249Z,100016.00
2018-07-09T01:51:10.576Z,100022.00
2018-07-09T01:53:39.950Z,100016.00
2018-07-09T01:56:09.322Z,100015.00
2018-07-09T01:58:38.688Z,100011.00
2018-07-09T02:01:08.276Z,100017.00
2018-07-09T02:03:37.671Z,100014.00
2018-07-09T02:06:07.078Z,100017.00
2018-07-09T02:08:36.421Z,100014.00
2018-07-09T02:11:05.928Z,99998.00
2018-07-09T02:13:35.417Z,100016.00
2018-07-09T02:16:05.083Z,100012.00
2018-07-09T02:18:34.457Z,100017.00
2018-07-09T02:21:03.793Z,100016.00
2018-07-09T02:23:33.251Z,100013.00
2018-07-09T02:26:02.584Z,100012.00
2018-07-09T02:28:31.999Z,100022.00
2018-07-09T02:31:01.361Z,100015.00
2018-07-09T02:33:30.718Z,100019.00
2018-07-09T02:36:00.073Z,100014.00
2018-07-09T02:38:29.523Z,100015.00
2018-07-09T02:40:58.880Z,100016.00
2018-07-09T02:43:28.209Z,100013.00
2018-07-09T02:45:57.603Z,100006.00
2018-07-09T02:48:26.923Z,100018.00
2018-07-09T02:50:56.293Z,100019.00
2018-07-09T02:53:25.647Z,100013.00
2018-07-09T02:55:55.060Z,100008.00
2018-07-09T02:58:25.013Z,100018.00
2018-07-09T03:00:54.615Z,100010.00
2018-07-09T03:03:23.882Z,100023.00
2018-07-09T03:05:53.221Z,100025.00
2018-07-09T03:08:22.600Z,100020.00
2018-07-09T03:10:51.989Z,100016.00
2018-07-09T03:13:21.305Z,100025.00
2018-07-09T03:15:50.686Z,100022.00
2018-07-09T03:18:20.087Z,100030.00
2018-07-09T03:20:49.441Z,100028.00
2018-07-09T03:23:18.793Z,100027.00
2018-07-09T03:25:48.192Z,100029.00
2018-07-09T03:28:17.556Z,100039.00
2018-07-09T03:30:46.894Z,100034.00
2018-07-09T03:33:16.333Z,100040.00
2018-07-09T03:35:45.534Z,100038.00
2018-07-09T03:38:14.854Z,100039.00
2018-07-09T03:40:44.301Z,100043.00
2018-07-09T03:43:13.670Z,100040.00
2018-07-09T03:45:43.045Z,100046.00
2018-07-09T03:48:12.401Z,100038.00
2018-07-09T03:50:41.780Z,100044.00
2018-07-09T03:53:11.092Z,100043.00
2018-07-09T03:55:40.461Z,100046.00
2018-07-09T03:58:09.799Z,100050.00
2018-07-09T04:00:39.247Z,100044.00
2018-07-09T04:03:08.829Z,100046.00
2018-07-09T04:05:38.201Z,100053.00
2018-07-09T04:08:07.597Z,100044.00
2018-07-09T04:10:36.973Z,100049.00
2018-07-09T04:13:06.341Z,100043.00
2018-07-09T04:15:35.787Z,100047.00
2018-07-09T04:18:05.246Z,100046.00
2018-07-09T04:20:34.601Z,100051.00
2018-07-09T04:23:03.907Z,100049.00
2018-07-09T04:25:33.282Z,100051.00
2018-07-09T04:28:02.650Z,100055.00
2018-07-09T04:30:32.073Z,100047.00
2018-07-09T04:33:01.479Z,100056.00
2018-07-09T04:35:30.846Z,100047.00
2018-07-09T04:38:00.146Z,100055.00
2018-07-09T04:40:29.516Z,100053.00
2018-07-09T04:42:59.229Z,100051.00
2018-07-09T04:45:28.559Z,100041.00
2018-07-09T04:47:57.972Z,100045.00
2018-07-09T04:50:27.513Z,100045.00
2018-07-09T04:52:56.913Z,100045.00
2018-07-09T04:55:26.264Z,100045.00
2018-07-09T04:57:55.650Z,100049.00
2018-07-09T05:00:25.026Z,100046.00
2018-07-09T05:02:54.444Z,100054.00
2018-07-09T05:05:23.844Z,100054.00
2018-07-09T05:07:53.220Z,100057.00
2018-07-09T05:10:22.631Z,100054.00
2018-07-09T05:12:52.020Z,100053.00
2018-07-09T05:15:21.473Z,100053.00
2018-07-09T05:17:50.860Z,100057.00
2018-07-09T05:20:20.240Z,100048.00
2018-07-09T05:22:49.584Z,100053.00
2018-07-09T05:25:18.949Z,100054.00
2018-07-09T05:27:48.304Z,100050.00
2018-07-09T05:30:17.692Z,100053.00
2018-07-09T05:32:47.062Z,100055.00
2018-07-09T05:35:16.381Z,100048.00
2018-07-09T05:37:45.858Z,100054.00
2018-07-09T05:40:15.361Z,100058.00
2018-07-09T05:42:44.996Z,100061.00
2018-07-09T05:45:14.365Z,100064.00
2018-07-09T05:47:43.900Z,100060.00
2018-07-09T05:50:13.488Z,100054.00
2018-07-09T05:52:42.856Z,100060.00
2018-07-09T05:55:12.241Z,100065.00
2018-07-09T05:57:41.546Z,100056.00
2018-07-09T06:00:10.965Z,100064.00
2018-07-09T06:02:40.340Z,100058.00
2018-07-09T06:05:09.775Z,100063.00
2018-07-09T06:07:39.189Z,100061.00
2018-07-09T06:10:08.625Z,100057.00
2018-07-09T06:12:37.992Z,100060.00
2018-07-09T06:15:07.409Z,100054.00
2018-07-09T06:17:36.825Z,100046.00
2018-07-09T06:20:06.935Z,100047.00
2018-07-09T06:22:36.429Z,100048.00
2018-07-09T06:25:05.914Z,100052.00
2018-07-09T06:27:35.281Z,100049.00
2018-07-09T06:30:05.167Z,100041.00
2018-07-09T06:32:34.586Z,100051.00
2018-07-09T06:35:04.098Z,100048.00
2018-07-09T06:37:33.480Z,100049.00
2018-07-09T06:40:02.917Z,100049.00
2018-07-09T06:42:32.256Z,100055.00
2018-07-09T06:45:01.668Z,100050.00
2018-07-09T06:47:31.193Z,100051.00
2018-07-09T06:50:00.636Z,100044.00
2018-07-09T06:52:30.066Z,100057.00
2018-07-09T06:54:59.501Z,100051.00
2018-07-09T06:57:28.920Z,100049.00
2018-07-09T06:59:58.300Z,100046.00
2018-07-09T07:02:27.773Z,100057.00
2018-07-09T07:04:57.120Z,100052.00
2018-07-09T07:07:26.496Z,100053.00
2018-07-09T07:09:55.890Z,100052.00
2018-07-09T07:12:25.367Z,100054.00
2018-07-09T07:14:54.738Z,100054.00
2018-07-09T07:17:24.142Z,100052.00
2018-07-09T07:19:53.577Z,100054.00
2018-07-09T07:22:22.985Z,100048.00
2018-07-09T07:24:52.349Z,100039.00
2018-07-09T07:27:21.944Z,100041.00
2018-07-09T07:29:51.354Z,100048.00
2018-07-09T07:32:20.770Z,100053.00
2018-07-09T07:34:50.201Z,100046.00
2018-07-09T07:37:19.619Z,100046.00
2018-07-09T07:39:49.044Z,100042.00
2018-07-09T07:42:18.606Z,100044.00
2018-07-09T07:44:48.122Z,100048.00
2018-07-09T07:47:17.465Z,100043.00
2018-07-09T07:49:46.948Z,100042.00
2018-07-09T07:52:16.406Z,100039.00
2018-07-09T07:54:45.801Z,100049.00
2018-07-09T07:57:15.241Z,100042.00
2018-07-09T07:59:44.757Z,100043.00
2018-07-09T08:02:14.143Z,100031.00
2018-07-09T08:04:43.509Z,100027.00
2018-07-09T08:07:12.900Z,100028.00
2018-07-09T08:09:42.320Z,100029.00
2018-07-09T08:13:00.554Z,100022.00
2018-07-09T08:14:41.146Z,100021.00
2018-07-09T08:17:10.513Z,100021.00
2018-07-09T08:19:39.625Z,100023.00
2018-07-09T08:22:09.062Z,100028.00
2018-07-09T08:24:38.585Z,100025.00
2018-07-09T08:27:07.989Z,100022.00
2018-07-09T08:29:37.350Z,100026.00
2018-07-09T08:32:06.831Z,100026.00
2018-07-09T08:34:36.222Z,100031.00
2018-07-09T08:37:05.768Z,100024.00
2018-07-09T08:39:35.153Z,100017.00
2018-07-09T08:42:04.599Z,100025.00
2018-07-09T08:44:34.616Z,100021.00
2018-07-09T08:47:04.060Z,100024.00
2018-07-09T08:49:33.427Z,100023.00
2018-07-09T08:52:02.894Z,100017.00
2018-07-09T08:54:32.295Z,100021.00
2018-07-09T08:57:02.445Z,100018.00
2018-07-09T08:59:31.589Z,100015.00
2018-07-09T09:02:01.030Z,100017.00
2018-07-09T09:04:30.490Z,100016.00
2018-07-09T09:06:59.930Z,100016.00
2018-07-09T09:09:29.342Z,100021.00
2018-07-09T09:11:58.802Z,100014.00
2018-07-09T09:14:28.175Z,100011.00
2018-07-09T09:16:57.615Z,100012.00
2018-07-09T09:19:27.013Z,100014.00
2018-07-09T09:21:56.422Z,100016.00
2018-07-09T09:24:25.822Z,100016.00
2018-07-09T09:26:54.862Z,100018.00
2018-07-09T09:29:24.317Z,100012.00
2018-07-09T09:31:53.706Z,100015.00
2018-07-09T09:34:23.113Z,100006.00
2018-07-09T09:36:52.523Z,100014.00
2018-07-09T09:39:21.938Z,100011.00
2018-07-09T09:41:51.933Z,100005.00
2018-07-09T09:44:21.328Z,100004.00
2018-07-09T09:46:50.701Z,100006.00
2018-07-09T09:49:20.139Z,100002.00
2018-07-09T09:51:49.465Z,100005.00
2018-07-09T09:54:19.031Z,100004.00
2018-07-09T09:56:48.443Z,100005.00
2018-07-09T09:59:17.897Z,99999.00
2018-07-09T10:01:47.427Z,100000.00
2018-07-09T10:04:17.092Z,100002.00
2018-07-09T10:06:46.525Z,100001.00
2018-07-09T10:09:16.315Z,99989.00
2018-07-09T10:11:45.700Z,99995.00
2018-07-09T10:14:15.164Z,99992.00
2018-07-09T10:16:44.695Z,99997.00
2018-07-09T10:19:14.625Z,100000.00
2018-07-09T10:21:44.086Z,99992.00
2018-07-09T10:24:13.515Z,99987.00
2018-07-09T10:26:42.921Z,99986.00
2018-07-09T10:29:12.365Z,99982.00
2018-07-09T10:31:41.999Z,99982.00
2018-07-09T10:34:11.475Z,99979.00
2018-07-09T10:36:40.869Z,99980.00
2018-07-09T10:39:10.243Z,99978.00
2018-07-09T10:41:39.653Z,99979.00
2018-07-09T10:44:09.017Z,99979.00
2018-07-09T10:46:38.402Z,99978.00
2018-07-09T10:49:07.825Z,99975.00
2018-07-09T10:51:37.207Z,99977.00
2018-07-09T10:54:06.606Z,99981.00
2018-07-09T10:56:36.026Z,99978.00
2018-07-09T10:59:05.545Z,99983.00
2018-07-09T11:01:34.948Z,99980.00
2018-07-09T11:04:04.350Z,99976.00
2018-07-09T11:06:33.731Z,99973.00
2018-07-09T11:09:03.294Z,99973.00
2018-07-09T11:11:32.795Z,99970.00
2018-07-09T11:14:02.200Z,99966.00
2018-07-09T11:16:31.576Z,99963.00
2018-07-09T11:19:00.976Z,99964.00
2018-07-09T11:21:30.395Z,99963.00
2018-07-09T11:23:59.766Z,99964.00
2018-07-09T11:26:29.152Z,99972.00
2018-07-09T11:28:58.894Z,99961.00
2018-07-09T11:31:28.476Z,99956.00
2018-07-09T11:33:58.091Z,99954.00
2018-07-09T11:36:27.529Z,99962.00
2018-07-09T11:38:56.862Z,99950.00
2018-07-09T11:41:26.435Z,99955.00
2018-07-09T11:43:55.816Z,99948.00
2018-07-09T11:46:25.209Z,99949.00
2018-07-09T11:48:54.665Z,99944.00
2018-07-09T11:51:24.057Z,99936.00
2018-07-09T11:53:53.473Z,99937.00
2018-07-09T11:56:23.054Z,99932.00
2018-07-09T11:58:52.522Z,99931.00
2018-07-09T12:01:21.934Z,99925.00
2018-07-09T12:03:51.332Z,99937.00
2018-07-09T12:06:20.741Z,99940.00
2018-07-09T12:08:50.121Z,99938.00
2018-07-09T12:11:19.530Z,99938.00
2018-07-09T12:13:48.896Z,99936.00
2018-07-09T12:16:18.321Z,99934.00
2018-07-09T12:18:47.719Z,99939.00
2018-07-09T12:21:17.120Z,99933.00
2018-07-09T12:23:46.534Z,99932.00
2018-07-09T12:26:15.904Z,99930.00
2018-07-09T12:28:45.290Z,99927.00
2018-07-09T12:31:14.667Z,99923.00
2018-07-09T12:33:44.068Z,99927.00
2018-07-09T12:36:13.537Z,99922.00
2018-07-09T12:38:42.863Z,99922.00
2018-07-09T12:41:12.266Z,99925.00
2018-07-09T12:43:41.680Z,99928.00
2018-07-09T12:46:11.147Z,99933.00
2018-07-09T12:48:40.575Z,99928.00
2018-07-09T12:51:09.929Z,99934.00
2018-07-09T12:53:39.316Z,99928.00
2018-07-09T12:56:08.690Z,99930.00
2018-07-09T12:58:38.038Z,99929.00
2018-07-09T13:01:07.643Z,99930.00
2018-07-09T13:03:36.705Z,99920.00
2018-07-09T13:06:06.061Z,99915.00
2018-07-09T13:08:35.424Z,99914.00
2018-07-09T13:11:04.841Z,99911.00
2018-07-09T13:13:34.246Z,99910.00
2018-07-09T13:16:03.721Z,99909.00
2018-07-09T13:18:33.104Z,99900.00
2018-07-09T13:21:02.472Z,99898.00
2018-07-09T13:23:31.935Z,99893.00
2018-07-09T13:26:01.361Z,99894.00
2018-07-09T13:28:31.013Z,99894.00
2018-07-09T13:31:00.508Z,99888.00
2018-07-09T13:33:30.273Z,99890.00
2018-07-09T13:35:59.743Z,99887.00
2018-07-09T13:38:29.379Z,99884.00
2018-07-09T13:40:58.945Z,99885.00
2018-07-09T13:43:28.910Z,99884.00
2018-07-09T13:45:59.317Z,99885.00
2018-07-09T13:48:28.897Z,99878.00
2018-07-09T13:50:58.689Z,99878.00
2018-07-09T13:53:28.334Z,99874.00
2018-07-09T13:55:58.197Z,99880.00
2018-07-09T13:58:28.166Z,99878.00
2018-07-09T14:00:57.579Z,99868.00
2018-07-09T14:03:27.106Z,99864.00
2018-07-09T14:05:56.576Z,99863.00
2018-07-09T14:08:26.042Z,99858.00
2018-07-09T14:10:55.481Z,99853.00
2018-07-09T14:13:24.876Z,99854.00
2018-07-09T14:15:54.211Z,99853.00
2018-07-09T14:18:23.617Z,99850.00
2018-07-09T14:20:53.060Z,99846.00
2018-07-09T14:23:23.304Z,99842.00
2018-07-09T14:25:52.652Z,99841.00
2018-07-09T14:28:22.017Z,99831.00
2018-07-09T14:30:57.930Z,99827.00
2018-07-09T14:33:27.329Z,99826.00
2018-07-09T14:35:56.721Z,99826.00
2018-07-09T14:38:26.064Z,99825.00
2018-07-09T14:40:55.426Z,99817.00
2018-07-09T14:43:24.873Z,99809.00
2018-07-09T14:45:54.299Z,99817.00
2018-07-09T14:48:23.640Z,99809.00
2018-07-09T14:50:53.119Z,99811.00
2018-07-09T14:53:22.536Z,99804.00
2018-07-09T14:55:51.973Z,99799.00
2018-07-09T14:58:21.314Z,99806.00
2018-07-09T15:00:50.718Z,99792.00
2018-07-09T15:03:20.074Z,99798.00
2018-07-09T15:05:49.392Z,99788.00
2018-07-09T15:08:18.782Z,99791.00
2018-07-09T15:10:48.078Z,99787.00
2018-07-09T15:13:17.464Z,99783.00
2018-07-09T15:15:46.850Z,99781.00
2018-07-09T15:18:16.150Z,99784.00
2018-07-09T15:20:45.536Z,99776.00
2018-07-09T15:23:14.953Z,99780.00
2018-07-09T15:25:44.283Z,99778.00
2018-07-09T15:28:13.697Z,99774.00
2018-07-09T15:30:43.109Z,99772.00
2018-07-09T15:33:12.448Z,99772.00
2018-07-09T15:35:41.786Z,99771.00
2018-07-09T15:38:11.126Z,99784.00
2018-07-09T15:40:40.473Z,99773.00
2018-07-09T15:43:09.822Z,99772.00
2018-07-09T15:45:39.236Z,99768.00
2018-07-09T15:48:08.642Z,99768.00
2018-07-09T15:50:37.996Z,99764.00
2018-07-09T15:53:07.481Z,99773.00
2018-07-09T15:55:36.800Z,99768.00
2018-07-09T15:58:06.268Z,99770.00
2018-07-09T16:00:35.647Z,99765.00
2018-07-09T16:03:05.102Z,99770.00
2018-07-09T16:05:35.029Z,99760.00
2018-07-09T16:08:04.412Z,99755.00
2018-07-09T16:10:33.797Z,99758.00
2018-07-09T16:13:03.143Z,99762.00
2018-07-09T16:15:32.533Z,99762.00
2018-07-09T16:18:01.950Z,99753.00
2018-07-09T16:20:31.366Z,99748.00
2018-07-09T16:23:00.673Z,99757.00
2018-07-09T16:25:30.032Z,99751.00
2018-07-09T16:27:59.483Z,99752.00
2018-07-09T16:30:28.954Z,99744.00
2018-07-09T16:32:58.344Z,99750.00
2018-07-09T16:35:27.830Z,99752.00
2018-07-09T16:37:57.209Z,99748.00
2018-07-09T16:40:26.574Z,99748.00
2018-07-09T16:42:55.981Z,99745.00
2018-07-09T16:45:25.341Z,99741.00
2018-07-09T16:47:54.706Z,99739.00
2018-07-09T16:50:24.400Z,99742.00
2018-07-09T16:52:53.808Z,99731.00
2018-07-09T16:55:23.237Z,99740.00
2018-07-09T16:57:52.610Z,99741.00
2018-07-09T17:00:21.687Z,99735.00
2018-07-09T17:02:51.109Z,99738.00
2018-07-09T17:05:20.478Z,99734.00
2018-07-09T17:07:49.857Z,99737.00
2018-07-09T17:10:19.213Z,99735.00
2018-07-09T17:12:48.608Z,99737.00
2018-07-09T17:15:18.069Z,99741.00
2018-07-09T17:17:47.462Z,99741.00
2018-07-09T17:20:16.935Z,99736.00
2018-07-09T17:22:46.332Z,99736.00
2018-07-09T17:25:15.690Z,99741.00
2018-07-09T17:27:45.085Z,99739.00
2018-07-09T17:30:14.484Z,99747.00
2018-07-09T17:32:43.961Z,99748.00
2018-07-09T17:35:13.521Z,99741.00
2018-07-09T17:37:42.968Z,99754.00
2018-07-09T17:40:12.442Z,99750.00
2018-07-09T17:42:41.881Z,99747.00
2018-07-09T17:45:11.358Z,99755.00
2018-07-09T17:47:40.882Z,99759.00
2018-07-09T17:50:10.695Z,99756.00
2018-07-09T17:52:40.165Z,99753.00
2018-07-09T17:55:09.663Z,99760.00
2018-07-09T17:57:39.006Z,99756.00
2018-07-09T18:00:08.394Z,99761.00
2018-07-09T18:02:37.884Z,99756.00
2018-07-09T18:05:07.339Z,99756.00
2018-07-09T18:07:36.766Z,99754.00
2018-07-09T18:10:06.266Z,99759.00
2018-07-09T18:12:35.680Z,99759.00
2018-07-09T18:15:05.657Z,99756.00
2018-07-09T18:17:35.145Z,99765.00
2018-07-09T18:20:04.639Z,99749.00
2018-07-09T18:22:34.065Z,99757.00
2018-07-09T18:25:03.534Z,99752.00
2018-07-09T18:27:32.956Z,99753.00
2018-07-09T18:30:02.459Z,99747.00
2018-07-09T18:32:31.867Z,99749.00
2018-07-09T18:35:01.236Z,99761.00
2018-07-09T18:37:30.590Z,99751.00
2018-07-09T18:40:00.039Z,99752.00
2018-07-09T18:42:29.441Z,99749.00
2018-07-09T18:44:59.022Z,99754.00
2018-07-09T18:47:28.420Z,99748.00
2018-07-09T18:49:57.814Z,99750.00
2018-07-09T18:52:27.625Z,99749.00
2018-07-09T18:54:57.048Z,99752.00
2018-07-09T18:57:26.529Z,99750.00
2018-07-09T18:59:56.086Z,99751.00
2018-07-09T19:02:25.261Z,99748.00
2018-07-09T19:04:54.741Z,99741.00
2018-07-09T19:07:24.735Z,99748.00
2018-07-09T19:09:54.254Z,99747.00
2018-07-09T19:12:24.257Z,99752.00
2018-07-09T19:14:53.934Z,99755.00
2018-07-09T19:17:47.984Z,99747.00
2018-07-09T19:20:35.025Z,99752.00
2018-07-09T19:23:02.893Z,99749.00
2018-07-09T19:25:30.562Z,99751.00
2018-07-09T19:27:58.212Z,99752.00
2018-07-09T19:30:26.021Z,99750.00
2018-07-09T19:32:53.712Z,99755.00
2018-07-09T19:35:21.401Z,99755.00
2018-07-09T19:37:49.391Z,99763.00
2018-07-09T19:40:16.761Z,99763.00
2018-07-09T19:42:44.423Z,99761.00
2018-07-09T19:45:12.098Z,99767.00
2018-07-09T19:47:40.629Z,99770.00
2018-07-09T19:50:08.316Z,99768.00
2018-07-09T19:52:36.011Z,99769.00
2018-07-09T19:55:03.680Z,99770.00
2018-07-09T19:57:31.372Z,99768.00
2018-07-09T19:59:59.062Z,99768.00
2018-07-09T20:02:26.749Z,99770.00
2018-07-09T20:04:54.479Z,99762.00
2018-07-09T20:07:22.122Z,99768.00
2018-07-09T20:09:55.972Z,99766.00
2018-07-09T20:12:28.734Z,99773.00
2018-07-09T20:15:01.546Z,99767.00
2018-07-09T20:17:29.272Z,99764.00
2018-07-09T20:19:57.035Z,99753.00
2018-07-09T20:22:24.701Z,99754.00
2018-07-09T20:24:52.401Z,99760.00
2018-07-09T20:27:20.070Z,99756.00
2018-07-09T20:29:47.727Z,99753.00
2018-07-09T20:32:15.501Z,99756.00
2018-07-09T20:34:43.169Z,99751.00
2018-07-09T20:37:10.884Z,99750.00
2018-07-09T20:39:38.581Z,99746.00
2018-07-09T20:42:06.237Z,99752.00
2018-07-09T20:44:33.926Z,99750.00
2018-07-09T20:47:01.598Z,99752.00
2018-07-09T20:49:29.286Z,99754.00
2018-07-09T20:51:56.991Z,99758.00
2018-07-09T20:54:24.651Z,99757.00
2018-07-09T20:56:52.411Z,99766.00
2018-07-09T20:59:20.105Z,99766.00
2018-07-09T21:01:47.787Z,99755.00
2018-07-09T21:04:20.669Z,99761.00
2018-07-09T21:06:48.347Z,99753.00
2018-07-09T21:09:16.130Z,99756.00
2018-07-09T21:11:43.779Z,99754.00
2018-07-09T21:14:11.469Z,99756.00
2018-07-09T21:16:39.397Z,99751.00
2018-07-09T21:19:07.201Z,99745.00
2018-07-09T21:21:34.944Z,99753.00
2018-07-09T21:24:02.598Z,99751.00
2018-07-09T21:26:30.251Z,99759.00
2018-07-09T21:28:57.915Z,99753.00
2018-07-09T21:31:25.600Z,99760.00
2018-07-09T21:33:53.244Z,99751.00
2018-07-09T21:36:20.912Z,99759.00
2018-07-09T21:38:48.554Z,99761.00
2018-07-09T21:41:16.237Z,99753.00
2018-07-09T21:43:43.880Z,99761.00
2018-07-09T21:46:11.605Z,99761.00
2018-07-09T21:48:39.345Z,99768.00
2018-07-09T21:51:06.989Z,99768.00
2018-07-09T21:53:34.648Z,99760.00
2018-07-09T21:56:02.300Z,99760.00
2018-07-09T21:58:29.984Z,99762.00
2018-07-09T22:00:57.643Z,99765.00
2018-07-09T22:03:25.296Z,99773.00
2018-07-09T22:05:52.965Z,99766.00
2018-07-09T22:08:20.612Z,99764.00
2018-07-09T22:10:48.289Z,99768.00
2018-07-09T22:13:15.954Z,99766.00
2018-07-09T22:15:43.625Z,99764.00
2018-07-09T22:18:11.311Z,99772.00
2018-07-09T22:20:38.955Z,99766.00
2018-07-09T22:23:06.605Z,99771.00
2018-07-09T22:25:34.273Z,99765.00
2018-07-09T22:28:01.949Z,99769.00
2018-07-09T22:30:31.934Z,99762.00
2018-07-09T22:33:01.410Z,99763.00
2018-07-09T22:35:30.774Z,99769.00
2018-07-09T22:38:00.147Z,99770.00
2018-07-09T22:40:29.511Z,99768.00
2018-07-09T22:42:59.361Z,99770.00
2018-07-09T22:45:28.706Z,99778.00
2018-07-09T22:47:58.052Z,99775.00
2018-07-09T22:50:27.400Z,99778.00
2018-07-09T22:52:56.729Z,99776.00
2018-07-09T22:55:43.141Z,99786.00
2018-07-09T22:58:12.512Z,99782.00
2018-07-09T23:00:41.876Z,99779.00
2018-07-09T23:03:14.386Z,99765.00
2018-07-09T23:05:44.194Z,99776.00
2018-07-09T23:08:13.620Z,99774.00
2018-07-09T23:13:24.226Z,99774.00
2018-07-09T23:18:12.208Z,99787.00
2018-07-09T23:20:58.377Z,99788.00
2018-07-09T23:23:26.044Z,99782.00
2018-07-09T23:25:53.684Z,99785.00
2018-07-09T23:28:21.332Z,99784.00
2018-07-09T23:30:48.980Z,99776.00
2018-07-09T23:33:16.614Z,99775.00
2018-07-09T23:35:44.550Z,99766.00
2018-07-09T23:38:12.225Z,99764.00
2018-07-09T23:40:39.876Z,99769.00
2018-07-09T23:43:07.604Z,99768.00
2018-07-09T23:45:35.257Z,99764.00
2018-07-09T23:48:02.912Z,99763.00
2018-07-09T23:50:30.580Z,99764.00
2018-07-09T23:52:58.266Z,99766.00
2018-07-09T23:55:28.252Z,99764.00
